This is the latest recevied weather packets stored in our database for station/object KBTL-WX. If no packets are shown the sender has not sent any weather packets the latest 10 day(s).
| Time | Temp. | Humidity | Pressure | Rain* | Wind** | Luminosity | Snow |
|---|---|---|---|---|---|---|---|
| 1777492834 | 10° C | 88% | 977.9 hPa | 0 mm | - | - | - |
| 1777491914 | 10° C | 93% | 978.1 hPa | 2.29 mm | - | - | - |
| 1777491030 | 10° C | 93% | 978.1 hPa | 2.29 mm | - | - | - |
| 1777490113 | 10° C | 93% | 978.1 hPa | 2.54 mm | - | - | - |
| 1777489234 | 10° C | 93% | 978.1 hPa | 2.54 mm | - | - | - |
| 1777488313 | 9.44° C | 88% | 978.7 hPa | 0.25 mm | - | - | - |
| 1777487432 | 10° C | 90% | 977.8 hPa | 0.25 mm | - | - | - |
| 1777486513 | 10° C | 90% | 977.8 hPa | 1.27 mm | - | - | - |
| 1777485633 | 10° C | 90% | 977.8 hPa | 1.27 mm | - | - | - |
| 1777484713 | 10° C | 82% | 979 hPa | 0 mm | - | - | - |
| 1777483826 | 10° C | 79% | 978.6 hPa | 0 mm | - | - | - |
| 1777482913 | 10.56° C | 79% | 978.6 hPa | 0 mm | - | - | - |
| 1777482035 | 10.56° C | 79% | 978.6 hPa | 0 mm | - | - | - |
| 1777481113 | 10.56° C | 83% | 979.1 hPa | 0 mm | - | - | - |
| 1777480231 | 10° C | 80% | 979.1 hPa | 0 mm | - | - | - |
| 1777479312 | 10° C | 80% | 979.1 hPa | 0 mm | - | - | - |
| 1777478436 | 10° C | 80% | 979.1 hPa | 0 mm | - | - | - |
| 1777477512 | 10° C | 80% | 979.9 hPa | 0 mm | - | - | - |
| 1777476627 | 10° C | 79% | 980.3 hPa | 0 mm | - | - | - |
| 1777475713 | 10° C | 79% | 980.3 hPa | 0 mm | - | - | - |
| 1777474836 | 10° C | 79% | 980.3 hPa | 0 mm | - | - | - |
| 1777473912 | 10.56° C | 80% | 979.8 hPa | 0 mm | - | - | - |
| 1777473028 | 10.56° C | 85% | 979.8 hPa | 0 mm | - | - | - |
| 1777472113 | 10° C | 85% | 979.7 hPa | 0 mm | - | - | - |
| 1777471238 | 10° C | 85% | 979.7 hPa | 0 mm | - | - | - |
* Rain latest hour (hover to see other rain measurements)
** Current wind speed in m/s (hover to see current wind gust speed)